Airfield :
LOGIN :

Register | Disclaimer

   EN    FR    IT 

 










Legend :    VFR   Marginal VFR   IFR   Intensive IFR   Very Intensive IFR
Visi :
Ceiling :
>= 8 km
>= 3000ft
5 to 8 km
1000 to 3000 ft
1500m to 5 km
500 to 1000 ft
800 to 1500m
200 to 500 ft
< 800m
< 200 ft
Symbols :   Thunderstorms  Fog  Heavy snow  Heavy precipitations  Wind > 20 kt
SIGMETs :     Misc.  Thunderstorms  Icing  Turbulence  Mountain Waves  Volcanic Ashes






- Airport Elevation : 584 ft


LFPV - Villacoublay Vélizy

CURRENT METAR :
  • 280330Z AUTO 30002KT CAVOK 08/08 Q1023 TEMPO 3000 BR

EXPIRED METARs :
  • 280300Z AUTO 00000KT CAVOK 09/08 Q1023 TEMPO 3000 BR
  • 280230Z AUTO 00000KT CAVOK 09/08 Q1023 TEMPO 3000 BR
  • 280200Z AUTO 23003KT CAVOK 10/08 Q1023 NOSIG
  • 280130Z AUTO 23002KT CAVOK 09/08 Q1024 NOSIG
  • 280100Z AUTO 00000KT CAVOK 10/08 Q1024 NOSIG

TAF TAF LFPV
Valid from the 28 at 03:00 until the 29 at 03:00 UTC


280200Z 2803/2903 22005KT CAVOK TX18/2815Z TN11/2805Z
PROB40
TEMPO 2804/2808 3000 BR



MET'MAP, your aeronautical weather chart ! - Copyright ORBIFLY December 2007 - Disclaimer

ORBIFLY MET'MAP TEAM :

Programming & Development : Alexandra Zaïnal
Concept & original design : Baudouin d'Aumeries
Assistance for programming : Marc-Olivier Méhu
Technical & hardware support : Manuel Goepfert

Contact : metmap@orbifly.com




SOURCES & CREDITS :

   NOAA